Doris — 9HA2632 — position and weather

sailwx.info

Track history (hours):
 
Tides and Currents Weather Stations Pressure Air Temp Water Temp Dewpoint Dewpoint Depression Visibility Wind Speed Wind Dir Waves Ship Positions

Doris

Last reported at 2016-Jan-06 06:21 UTC. Time now 2016-Feb-09 13:54 UTC.
Position N 23°55' E 118°21'.
Warning: this ship's position is 34 days out of date.

Length 182 m; draft 9.3 m.

Type: Cargo ship. MMSI: 215080000.

Date/timePositionNaut miles runAvg speedWind from/ knotsBaromVisibWave heightAir tempDewpointWater temp
2016-Jan-06 06:21N 23°55' E 118°21'5514.5
2016-Jan-06 02:33N 24°28' E 119°08'43310.7
2016-Jan-04 10:12N 31°16' E 121°51'710.7
2016-Jan-04 09:32N 31°19' E 121°44'18 9.0
2016-Jan-04 07:33N 31°29' E 121°26'1010.1
2016-Jan-04 06:33N 31°36' E 121°18'0 0.2
2016-Jan-04 05:33N 31°36' E 121°18'0 0.2
2016-Jan-04 04:33N 31°36' E 121°18'10 9.7
2016-Jan-04 03:33N 31°42' E 121°09'10 9.4
2016-Jan-04 02:27N 31°47' E 120°58'6 7.2
2016-Jan-04 01:33N 31°49' E 120°51'1 0.7
2016-Jan-04 00:33N 31°50' E 120°51'0 0.0
2016-Jan-03 23:33N 31°50' E 120°51'0 0.0
2016-Jan-03 22:33N 31°50' E 120°51'0 0.0
2016-Jan-03 21:33N 31°50' E 120°51'0 0.0
2016-Jan-03 20:30N 31°50' E 120°51'0 0.0
2016-Jan-03 19:33N 31°50' E 120°51'0 0.0
2016-Jan-03 18:33N 31°50' E 120°51'0 0.0
2016-Jan-03 17:33N 31°50' E 120°51'0 0.0
2016-Jan-03 16:33N 31°50' E 120°51'0 0.0
2016-Jan-03 15:30N 31°50' E 120°51'0 0.0
2016-Jan-03 14:33N 31°50' E 120°51'0 0.0
2016-Jan-03 13:30N 31°50' E 120°51'0 0.0
2016-Jan-03 12:30N 31°50' E 120°51'0 0.0
2016-Jan-03 11:33N 31°50' E 120°51'0 0.0
2016-Jan-03 09:29N 31°50' E 120°51'0 0.0
2016-Jan-03 08:11N 31°50' E 120°51'0 0.0
2016-Jan-03 06:33N 31°50' E 120°51'0 0.0
2016-Jan-03 05:32N 31°50' E 120°51'0 0.0
2016-Jan-03 04:05N 31°50' E 120°51'0 0.0
2016-Jan-03 03:33N 31°50' E 120°51'0 0.0
2016-Jan-03 02:33N 31°50' E 120°51'0 0.0
2016-Jan-03 01:32N 31°50' E 120°51'0 0.0
2016-Jan-03 00:33N 31°50' E 120°51'0 0.0
2016-Jan-02 23:33N 31°50' E 120°51'0 0.0
2016-Jan-02 22:33N 31°50' E 120°51'0 0.0
2016-Jan-02 21:33N 31°50' E 120°51'0 0.0
2016-Jan-02 20:26N 31°50' E 120°51'0 0.0
2016-Jan-02 19:32N 31°50' E 120°51'0 0.0
2016-Jan-02 18:29N 31°50' E 120°51'0 0.0
2016-Jan-02 17:32N 31°50' E 120°51'0 0.0
2016-Jan-02 16:32N 31°50' E 120°51'0 0.0
2016-Jan-02 15:32N 31°50' E 120°51'0 0.0
2016-Jan-02 14:29N 31°50' E 120°51'0 0.0
2016-Jan-02 13:32N 31°50' E 120°51'0 0.0
2016-Jan-02 12:26N 31°50' E 120°51'0 0.0
2016-Jan-02 11:32N 31°50' E 120°51'0 0.0
2016-Jan-02 10:29N 31°50' E 120°51'0 0.0
2016-Jan-02 09:32N 31°50' E 120°51'0 0.0
2016-Jan-02 08:32N 31°50' E 120°51'0 0.0
2016-Jan-02 07:32N 31°50' E 120°51'0 0.0
2016-Jan-02 06:32N 31°50' E 120°51'0 0.0
2016-Jan-02 05:32N 31°50' E 120°51'0 0.0
2016-Jan-02 04:29N 31°50' E 120°51'0 0.0
2016-Jan-02 03:32N 31°50' E 120°51'0 0.0
2016-Jan-02 02:32N 31°50' E 120°51'0 0.0
2016-Jan-02 01:32N 31°50' E 120°51'0 0.0
2016-Jan-02 00:29N 31°50' E 120°51'0 0.0
2016-Jan-01 20:23N 31°50' E 120°51'0 0.0
2016-Jan-01 19:32N 31°50' E 120°51'0 0.0
2016-Jan-01 18:29N 31°50' E 120°51'0 0.0
2016-Jan-01 17:32N 31°50' E 120°51'0 0.0
2016-Jan-01 16:05N 31°50' E 120°51'0 0.0
2016-Jan-01 15:32N 31°50' E 120°51'0 0.0
2016-Jan-01 14:29N 31°50' E 120°51'0 0.0
2016-Jan-01 13:32N 31°50' E 120°51'0 0.0
2016-Jan-01 11:32N 31°50' E 120°51'0 0.0
2016-Jan-01 10:26N 31°50' E 120°51'0 0.0
2016-Jan-01 09:32N 31°50' E 120°51'0 0.0
2016-Jan-01 08:26N 31°50' E 120°51'0 0.0
2016-Jan-01 07:32N 31°50' E 120°51'0 0.0
2016-Jan-01 06:26N 31°50' E 120°51'0 0.0
2016-Jan-01 05:32N 31°50' E 120°51'0 0.0
2016-Jan-01 04:32N 31°50' E 120°51'0 0.0
2016-Jan-01 03:23N 31°50' E 120°51'0 0.0
2016-Jan-01 02:33N 31°50' E 120°51'6 6.0
2016-Jan-01 01:34N 31°47' E 120°56'9 8.7
2016-Jan-01 00:32N 31°45' E 121°07'0 0.1
2015-Dec-31 23:23N 31°45' E 121°07'0 0.1
2015-Dec-31 22:26N 31°45' E 121°07'0 0.0
2015-Dec-31 20:26N 31°45' E 121°06'0 0.2
2015-Dec-31 19:26N 31°45' E 121°07'0 0.1
2015-Dec-31 18:29N 31°45' E 121°07'0 0.0
2015-Dec-31 17:32N 31°45' E 121°07'0 0.0
2015-Dec-31 16:32N 31°45' E 121°07'0 0.0
2015-Dec-31 15:32N 31°45' E 121°07'0 0.0
2015-Dec-31 14:32N 31°45' E 121°07'0 0.0
2015-Dec-31 13:29N 31°45' E 121°07'0 0.1
2015-Dec-31 12:32N 31°45' E 121°07'0 0.1
2015-Dec-31 11:32N 31°45' E 121°07'0 0.1
2015-Dec-31 10:26N 31°45' E 121°06'0 0.1
2015-Dec-31 09:29N 31°45' E 121°06'0 0.0
2015-Dec-31 08:32N 31°45' E 121°06'0 0.0
2015-Dec-31 07:32N 31°45' E 121°06'0 0.2
2015-Dec-31 06:20N 31°45' E 121°07'0 0.1
2015-Dec-31 05:26N 31°45' E 121°07'0 0.0
2015-Dec-31 04:29N 31°45' E 121°07'0 0.0
2015-Dec-31 03:32N 31°45' E 121°07'0 0.0
2015-Dec-31 02:29N 31°45' E 121°07'0 0.0
2015-Dec-31 01:32N 31°45' E 121°07'0 0.0
2015-Dec-31 00:29N 31°45' E 121°07'0 0.1
2015-Dec-30 23:32N 31°45' E 121°07'0 0.0
2015-Dec-30 22:17N 31°45' E 121°07'0 0.2
2015-Dec-30 21:32N 31°45' E 121°06'0 0.0
2015-Dec-30 20:29N 31°45' E 121°06'0 0.1
2015-Dec-30 19:32N 31°45' E 121°07'0 0.1
2015-Dec-30 18:32N 31°45' E 121°07'0 0.0
2015-Dec-30 17:29N 31°45' E 121°07'0 0.0
2015-Dec-30 16:32N 31°45' E 121°07'0 0.0
2015-Dec-30 15:32N 31°45' E 121°07'0 0.0
2015-Dec-30 14:32N 31°45' E 121°07'0 0.0
2015-Dec-30 13:26N 31°45' E 121°07'0 0.0
2015-Dec-30 12:32N 31°45' E 121°07'0 0.0
2015-Dec-30 11:29N 31°45' E 121°07'0 0.2
2015-Dec-30 10:32N 31°45' E 121°07'0 0.1
2015-Dec-30 09:29N 31°45' E 121°06'0 0.0
2015-Dec-30 07:26N 31°45' E 121°06'0 0.2
2015-Dec-30 06:32N 31°45' E 121°07'0 0.1
2015-Dec-30 05:31N 31°45' E 121°07'0 0.0
2015-Dec-30 04:32N 31°45' E 121°07'0 0.0
2015-Dec-30 03:32N 31°45' E 121°07'0 0.0
2015-Dec-30 02:29N 31°45' E 121°07'0 0.0
2015-Dec-30 01:32N 31°45' E 121°07'0 0.0
2015-Dec-30 00:28N 31°45' E 121°07'2 2.0
2015-Dec-29 23:33N 31°43' E 121°08'1111.1
2015-Dec-29 22:33N 31°36' E 121°17'1211.5
2015-Dec-29 21:33N 31°28' E 121°27'6 5.5
2015-Dec-29 20:33N 31°23' E 121°30'2 2.1
2015-Dec-29 19:29N 31°21' E 121°31'0 0.0
2015-Dec-29 18:29N 31°21' E 121°31'0 0.0
2015-Dec-29 17:17N 31°21' E 121°31'0 0.0
2015-Dec-29 15:17N 31°21' E 121°31'0 0.0
2015-Dec-29 14:29N 31°21' E 121°31'0 0.0
2015-Dec-29 13:23N 31°21' E 121°31'0 0.0
2015-Dec-29 12:11N 31°21' E 121°31'0 0.0
2015-Dec-29 11:11N 31°21' E 121°31'0 0.0
2015-Dec-29 09:29N 31°21' E 121°31'0 0.0
2015-Dec-29 08:23N 31°21' E 121°31'0 0.0
2015-Dec-29 07:29N 31°21' E 121°31'0 0.0
2015-Dec-29 05:17N 31°21' E 121°31'0 0.0
2015-Dec-29 04:11N 31°21' E 121°31'0 0.0
2015-Dec-29 03:11N 31°21' E 121°31'0 0.0
2015-Dec-29 02:29N 31°21' E 121°31'0 0.0
2015-Dec-29 01:28N 31°21' E 121°31'0 0.0
2015-Dec-29 00:28N 31°21' E 121°31'0 0.0
2015-Dec-28 23:28N 31°21' E 121°31'0 0.0
2015-Dec-28 22:23N 31°21' E 121°31'0 0.0
2015-Dec-28 21:28N 31°21' E 121°31'1 1.3
2015-Dec-28 20:33N 31°22' E 121°30'5 4.7
2015-Dec-28 19:33N 31°23' E 121°35'4 1.8
2015-Dec-28 17:26N 31°22' E 121°39'0 0.0
2015-Dec-28 16:08N 31°22' E 121°39'0 0.1
2015-Dec-28 13:32N 31°22' E 121°40'0 0.0
2015-Dec-28 12:26N 31°22' E 121°40'0 0.0
2015-Dec-28 11:26N 31°22' E 121°40'0 0.0
2015-Dec-28 10:14N 31°22' E 121°40'0 0.0
2015-Dec-28 09:33N 31°22' E 121°40'0 0.1
2015-Dec-28 08:33N 31°22' E 121°39'1 0.8
2015-Dec-28 07:33N 31°21' E 121°40'  
Track history (hours):
 
Tides and Currents Weather Stations Pressure Air Temp Water Temp Dewpoint Dewpoint Depression Visibility Wind Speed Wind Dir Waves Ship Positions

Doris

Last reported at 2016-Jan-06 06:21 UTC. Time now 2016-Feb-09 13:54 UTC.
Position N 23°55' E 118°21'.
Warning: this ship's position is 34 days out of date.

Length 182 m; draft 9.3 m.

Type: Cargo ship. MMSI: 215080000.

Date/timePositionNaut miles runAvg speedWind from/ knotsBaromVisibWave heightAir tempDewpointWater temp
2016-Jan-06 06:21N 23°55' E 118°21'5514.5
2016-Jan-06 02:33N 24°28' E 119°08'43310.7
2016-Jan-04 10:12N 31°16' E 121°51'710.7
2016-Jan-04 09:32N 31°19' E 121°44'18 9.0
2016-Jan-04 07:33N 31°29' E 121°26'1010.1
2016-Jan-04 06:33N 31°36' E 121°18'0 0.2
2016-Jan-04 05:33N 31°36' E 121°18'0 0.2
2016-Jan-04 04:33N 31°36' E 121°18'10 9.7
2016-Jan-04 03:33N 31°42' E 121°09'10 9.4
2016-Jan-04 02:27N 31°47' E 120°58'6 7.2
2016-Jan-04 01:33N 31°49' E 120°51'1 0.7
2016-Jan-04 00:33N 31°50' E 120°51'0 0.0
2016-Jan-03 23:33N 31°50' E 120°51'0 0.0
2016-Jan-03 22:33N 31°50' E 120°51'0 0.0
2016-Jan-03 21:33N 31°50' E 120°51'0 0.0
2016-Jan-03 20:30N 31°50' E 120°51'0 0.0
2016-Jan-03 19:33N 31°50' E 120°51'0 0.0
2016-Jan-03 18:33N 31°50' E 120°51'0 0.0
2016-Jan-03 17:33N 31°50' E 120°51'0 0.0
2016-Jan-03 16:33N 31°50' E 120°51'0 0.0
2016-Jan-03 15:30N 31°50' E 120°51'0 0.0
2016-Jan-03 14:33N 31°50' E 120°51'0 0.0
2016-Jan-03 13:30N 31°50' E 120°51'0 0.0
2016-Jan-03 12:30N 31°50' E 120°51'0 0.0
2016-Jan-03 11:33N 31°50' E 120°51'0 0.0
2016-Jan-03 09:29N 31°50' E 120°51'0 0.0
2016-Jan-03 08:11N 31°50' E 120°51'0 0.0
2016-Jan-03 06:33N 31°50' E 120°51'0 0.0
2016-Jan-03 05:32N 31°50' E 120°51'0 0.0
2016-Jan-03 04:05N 31°50' E 120°51'0 0.0
2016-Jan-03 03:33N 31°50' E 120°51'0 0.0
2016-Jan-03 02:33N 31°50' E 120°51'0 0.0
2016-Jan-03 01:32N 31°50' E 120°51'0 0.0
2016-Jan-03 00:33N 31°50' E 120°51'0 0.0
2016-Jan-02 23:33N 31°50' E 120°51'0 0.0
2016-Jan-02 22:33N 31°50' E 120°51'0 0.0
2016-Jan-02 21:33N 31°50' E 120°51'0 0.0
2016-Jan-02 20:26N 31°50' E 120°51'0 0.0
2016-Jan-02 19:32N 31°50' E 120°51'0 0.0
2016-Jan-02 18:29N 31°50' E 120°51'0 0.0
2016-Jan-02 17:32N 31°50' E 120°51'0 0.0
2016-Jan-02 16:32N 31°50' E 120°51'0 0.0
2016-Jan-02 15:32N 31°50' E 120°51'0 0.0
2016-Jan-02 14:29N 31°50' E 120°51'0 0.0
2016-Jan-02 13:32N 31°50' E 120°51'0 0.0
2016-Jan-02 12:26N 31°50' E 120°51'0 0.0
2016-Jan-02 11:32N 31°50' E 120°51'0 0.0
2016-Jan-02 10:29N 31°50' E 120°51'0 0.0
2016-Jan-02 09:32N 31°50' E 120°51'0 0.0
2016-Jan-02 08:32N 31°50' E 120°51'0 0.0
2016-Jan-02 07:32N 31°50' E 120°51'0 0.0
2016-Jan-02 06:32N 31°50' E 120°51'0 0.0
2016-Jan-02 05:32N 31°50' E 120°51'0 0.0
2016-Jan-02 04:29N 31°50' E 120°51'0 0.0
2016-Jan-02 03:32N 31°50' E 120°51'0 0.0
2016-Jan-02 02:32N 31°50' E 120°51'0 0.0
2016-Jan-02 01:32N 31°50' E 120°51'0 0.0
2016-Jan-02 00:29N 31°50' E 120°51'0 0.0
2016-Jan-01 20:23N 31°50' E 120°51'0 0.0
2016-Jan-01 19:32N 31°50' E 120°51'0 0.0
2016-Jan-01 18:29N 31°50' E 120°51'0 0.0
2016-Jan-01 17:32N 31°50' E 120°51'0 0.0
2016-Jan-01 16:05N 31°50' E 120°51'0 0.0
2016-Jan-01 15:32N 31°50' E 120°51'0 0.0
2016-Jan-01 14:29N 31°50' E 120°51'0 0.0
2016-Jan-01 13:32N 31°50' E 120°51'0 0.0
2016-Jan-01 11:32N 31°50' E 120°51'0 0.0
2016-Jan-01 10:26N 31°50' E 120°51'0 0.0
2016-Jan-01 09:32N 31°50' E 120°51'0 0.0
2016-Jan-01 08:26N 31°50' E 120°51'0 0.0
2016-Jan-01 07:32N 31°50' E 120°51'0 0.0
2016-Jan-01 06:26N 31°50' E 120°51'0 0.0
2016-Jan-01 05:32N 31°50' E 120°51'0 0.0
2016-Jan-01 04:32N 31°50' E 120°51'0 0.0
2016-Jan-01 03:23N 31°50' E 120°51'0 0.0
2016-Jan-01 02:33N 31°50' E 120°51'6 6.0
2016-Jan-01 01:34N 31°47' E 120°56'9 8.7
2016-Jan-01 00:32N 31°45' E 121°07'0 0.1
2015-Dec-31 23:23N 31°45' E 121°07'0 0.1
2015-Dec-31 22:26N 31°45' E 121°07'0 0.0
2015-Dec-31 20:26N 31°45' E 121°06'0 0.2
2015-Dec-31 19:26N 31°45' E 121°07'0 0.1
2015-Dec-31 18:29N 31°45' E 121°07'0 0.0
2015-Dec-31 17:32N 31°45' E 121°07'0 0.0
2015-Dec-31 16:32N 31°45' E 121°07'0 0.0
2015-Dec-31 15:32N 31°45' E 121°07'0 0.0
2015-Dec-31 14:32N 31°45' E 121°07'0 0.0
2015-Dec-31 13:29N 31°45' E 121°07'0 0.1
2015-Dec-31 12:32N 31°45' E 121°07'0 0.1
2015-Dec-31 11:32N 31°45' E 121°07'0 0.1
2015-Dec-31 10:26N 31°45' E 121°06'0 0.1
2015-Dec-31 09:29N 31°45' E 121°06'0 0.0
2015-Dec-31 08:32N 31°45' E 121°06'0 0.0
2015-Dec-31 07:32N 31°45' E 121°06'0 0.2
2015-Dec-31 06:20N 31°45' E 121°07'0 0.1
2015-Dec-31 05:26N 31°45' E 121°07'0 0.0
2015-Dec-31 04:29N 31°45' E 121°07'0 0.0
2015-Dec-31 03:32N 31°45' E 121°07'0 0.0
2015-Dec-31 02:29N 31°45' E 121°07'0 0.0
2015-Dec-31 01:32N 31°45' E 121°07'0 0.0
2015-Dec-31 00:29N 31°45' E 121°07'0 0.1
2015-Dec-30 23:32N 31°45' E 121°07'0 0.0
2015-Dec-30 22:17N 31°45' E 121°07'0 0.2
2015-Dec-30 21:32N 31°45' E 121°06'0 0.0
2015-Dec-30 20:29N 31°45' E 121°06'0 0.1
2015-Dec-30 19:32N 31°45' E 121°07'0 0.1
2015-Dec-30 18:32N 31°45' E 121°07'0 0.0
2015-Dec-30 17:29N 31°45' E 121°07'0 0.0
2015-Dec-30 16:32N 31°45' E 121°07'0 0.0
2015-Dec-30 15:32N 31°45' E 121°07'0 0.0
2015-Dec-30 14:32N 31°45' E 121°07'0 0.0
2015-Dec-30 13:26N 31°45' E 121°07'0 0.0
2015-Dec-30 12:32N 31°45' E 121°07'0 0.0
2015-Dec-30 11:29N 31°45' E 121°07'0 0.2
2015-Dec-30 10:32N 31°45' E 121°07'0 0.1
2015-Dec-30 09:29N 31°45' E 121°06'0 0.0
2015-Dec-30 07:26N 31°45' E 121°06'0 0.2
2015-Dec-30 06:32N 31°45' E 121°07'0 0.1
2015-Dec-30 05:31N 31°45' E 121°07'0 0.0
2015-Dec-30 04:32N 31°45' E 121°07'0 0.0
2015-Dec-30 03:32N 31°45' E 121°07'0 0.0
2015-Dec-30 02:29N 31°45' E 121°07'0 0.0
2015-Dec-30 01:32N 31°45' E 121°07'0 0.0
2015-Dec-30 00:28N 31°45' E 121°07'2 2.0
2015-Dec-29 23:33N 31°43' E 121°08'1111.1
2015-Dec-29 22:33N 31°36' E 121°17'1211.5
2015-Dec-29 21:33N 31°28' E 121°27'6 5.5
2015-Dec-29 20:33N 31°23' E 121°30'2 2.1
2015-Dec-29 19:29N 31°21' E 121°31'0 0.0
2015-Dec-29 18:29N 31°21' E 121°31'0 0.0
2015-Dec-29 17:17N 31°21' E 121°31'0 0.0
2015-Dec-29 15:17N 31°21' E 121°31'0 0.0
2015-Dec-29 14:29N 31°21' E 121°31'0 0.0
2015-Dec-29 13:23N 31°21' E 121°31'0 0.0
2015-Dec-29 12:11N 31°21' E 121°31'0 0.0
2015-Dec-29 11:11N 31°21' E 121°31'0 0.0
2015-Dec-29 09:29N 31°21' E 121°31'0 0.0
2015-Dec-29 08:23N 31°21' E 121°31'0 0.0
2015-Dec-29 07:29N 31°21' E 121°31'0 0.0
2015-Dec-29 05:17N 31°21' E 121°31'0 0.0
2015-Dec-29 04:11N 31°21' E 121°31'0 0.0
2015-Dec-29 03:11N 31°21' E 121°31'0 0.0
2015-Dec-29 02:29N 31°21' E 121°31'0 0.0
2015-Dec-29 01:28N 31°21' E 121°31'0 0.0
2015-Dec-29 00:28N 31°21' E 121°31'0 0.0
2015-Dec-28 23:28N 31°21' E 121°31'0 0.0
2015-Dec-28 22:23N 31°21' E 121°31'0 0.0
2015-Dec-28 21:28N 31°21' E 121°31'1 1.3
2015-Dec-28 20:33N 31°22' E 121°30'5 4.7
2015-Dec-28 19:33N 31°23' E 121°35'4 1.8
2015-Dec-28 17:26N 31°22' E 121°39'0 0.0
2015-Dec-28 16:08N 31°22' E 121°39'0 0.1
2015-Dec-28 13:32N 31°22' E 121°40'0 0.0
2015-Dec-28 12:26N 31°22' E 121°40'0 0.0
2015-Dec-28 11:26N 31°22' E 121°40'0 0.0
2015-Dec-28 10:14N 31°22' E 121°40'0 0.0
2015-Dec-28 09:33N 31°22' E 121°40'0 0.1
2015-Dec-28 08:33N 31°22' E 121°39'1 0.8
2015-Dec-28 07:33N 31°21' E 121°40'  

Dump ship's entire track history